Time;durP1;ratioP1;P1;durP2;ratioP2;P2;SDS_P1;SDS_P2;PMS_P1;PMS_P2;Temp;Humidity;BMP_temperature;BMP_pressure;BME280_temperature;BME280_humidity;BME280_pressure;Samples;Min_cycle;Max_cycle;Signal;HPM_P1;HPM_P2
2024/02/04 00:01:55;;;;;;;6.28;2.55;;;13.50;71.30;;;;;;4630128;30;20190;-85
2024/02/04 00:04:24;;;;;;;5.90;2.95;;;13.40;71.10;;;;;;4632498;30;20039;-84
2024/02/04 00:06:50;;;;;;;7.22;2.90;;;13.40;71.20;;;;;;4636951;30;20049;-84
2024/02/04 00:09:18;;;;;;;4.35;2.05;;;13.40;71.20;;;;;;4618078;30;20035;-84
2024/02/04 00:11:44;;;;;;;5.75;2.72;;;13.40;71.20;;;;;;4620005;30;20070;-85
2024/02/04 00:14:13;;;;;;;7.60;2.92;;;13.40;71.20;;;;;;4621871;30;20047;-84
2024/02/04 00:16:48;;;;;;;8.52;2.88;;;13.40;71.20;;;;;;4630841;30;20551;-84
2024/02/04 00:19:14;;;;;;;9.13;4.28;;;13.40;71.30;;;;;;4632216;30;20058;-83
2024/02/04 00:21:40;;;;;;;7.47;3.15;;;13.40;71.30;;;;;;4623599;30;20066;-85
2024/02/04 00:24:06;;;;;;;8.80;3.13;;;13.40;71.30;;;;;;4632134;30;20038;-84
2024/02/04 00:26:32;;;;;;;6.25;3.28;;;13.30;71.20;;;;;;4635927;30;20496;-83
2024/02/04 00:28:58;;;;;;;9.82;3.03;;;13.30;71.20;;;;;;4633075;30;20117;-84
2024/02/04 00:31:24;;;;;;;6.13;3.28;;;13.40;71.40;;;;;;4619138;30;20532;-84
2024/02/04 00:34:03;;;;;;;8.73;3.08;;;13.40;71.40;;;;;;4620159;30;20042;-85
2024/02/04 00:36:30;;;;;;;9.10;3.05;;;13.30;71.30;;;;;;4614481;30;20035;-84
2024/02/04 00:38:56;;;;;;;7.93;2.70;;;13.30;71.30;;;;;;4618887;30;20209;-81
2024/02/04 00:41:22;;;;;;;8.15;3.28;;;13.40;71.50;;;;;;4636962;30;20210;-83
2024/02/04 00:43:48;;;;;;;8.82;4.68;;;13.30;71.30;;;;;;4648444;30;20103;-83
2024/02/04 00:46:14;;;;;;;8.93;3.97;;;13.30;71.40;;;;;;4638323;30;20090;-84
2024/02/04 00:48:41;;;;;;;6.72;3.38;;;13.30;71.40;;;;;;4658694;30;20046;-84
2024/02/04 00:51:07;;;;;;;9.13;4.57;;;13.30;71.40;;;;;;4653180;30;20054;-85
2024/02/04 00:53:33;;;;;;;6.55;3.47;;;13.30;71.40;;;;;;4650213;30;20050;-85
2024/02/04 00:56:04;;;;;;;9.13;3.05;;;13.30;71.50;;;;;;4633425;30;20574;-87
2024/02/04 00:58:36;;;;;;;6.82;2.63;;;13.30;71.50;;;;;;4617276;30;20564;-86
2024/02/04 01:01:01;;;;;;;10.73;3.65;;;13.30;71.50;;;;;;4624140;30;20130;-86
2024/02/04 01:03:29;;;;;;;7.40;4.13;;;13.30;71.50;;;;;;4622702;30;20047;-88
2024/02/04 01:05:55;;;;;;;8.48;3.10;;;13.30;71.50;;;;;;4633050;30;20389;-87
2024/02/04 01:08:24;;;;;;;7.88;2.97;;;13.30;72.20;;;;;;4630983;30;20473;-84
2024/02/04 01:10:51;;;;;;;5.97;2.35;;;13.30;71.60;;;;;;4619174;30;20098;-84
2024/02/04 01:13:17;;;;;;;11.07;2.88;;;13.30;71.60;;;;;;4604555;30;20485;-84
2024/02/04 01:15:44;;;;;;;7.22;2.92;;;13.30;71.60;;;;;;4631877;30;20042;-85
2024/02/04 01:18:10;;;;;;;8.00;3.03;;;13.30;71.60;;;;;;4617193;30;20038;-85
2024/02/04 01:20:39;;;;;;;5.90;2.70;;;13.30;71.60;;;;;;4619184;30;20066;-86
2024/02/04 01:23:05;;;;;;;5.90;2.47;;;13.20;71.50;;;;;;4632221;30;20709;-85
2024/02/04 01:25:34;;;;;;;8.05;2.90;;;13.20;71.50;;;;;;4630158;30;20038;-86
2024/02/04 01:28:00;;;;;;;7.72;3.60;;;13.20;71.50;;;;;;4633397;30;20049;-87
2024/02/04 01:30:26;;;;;;;5.97;2.47;;;13.20;71.60;;;;;;4627821;30;20043;-86
2024/02/04 01:32:52;;;;;;;8.90;3.17;;;13.20;71.60;;;;;;4631868;30;20046;-86
2024/02/04 01:35:21;;;;;;;12.45;3.45;;;13.20;71.60;;;;;;4626179;30;20063;-86
2024/02/04 01:37:48;;;;;;;8.05;3.03;;;13.20;71.60;;;;;;4626880;30;20071;-86
2024/02/04 01:40:15;;;;;;;6.82;2.50;;;13.20;71.70;;;;;;4628695;30;20317;-87
2024/02/04 01:42:41;;;;;;;8.93;3.50;;;13.20;71.70;;;;;;4619438;30;20103;-87
2024/02/04 01:45:07;;;;;;;9.02;3.60;;;13.20;71.70;;;;;;4623302;30;20065;-85
2024/02/04 01:47:34;;;;;;;9.10;3.60;;;13.20;71.70;;;;;;4621312;30;20587;-83
2024/02/04 01:50:03;;;;;;;11.00;3.75;;;13.20;71.80;;;;;;4620916;30;20046;-83
2024/02/04 01:52:32;;;;;;;10.18;3.60;;;13.20;71.80;;;;;;4631197;30;20031;-84
2024/02/04 01:55:04;;;;;;;9.48;2.53;;;13.20;71.80;;;;;;4630033;30;20109;-84
2024/02/04 01:57:31;;;;;;;6.60;3.08;;;13.20;71.80;;;;;;4633809;30;20138;-85
2024/02/04 01:59:58;;;;;;;8.88;3.25;;;13.20;71.80;;;;;;4629213;30;20431;-86
2024/02/04 02:02:25;;;;;;;10.18;3.72;;;13.20;71.80;;;;;;4624841;30;20385;-82
2024/02/04 02:04:52;;;;;;;11.25;3.38;;;13.20;71.80;;;;;;4629261;30;20046;-84
2024/02/04 02:07:21;;;;;;;7.45;3.75;;;13.20;71.90;;;;;;4616435;30;20443;-84
2024/02/04 02:09:47;;;;;;;10.10;3.17;;;13.20;71.90;;;;;;4614225;30;20039;-85
2024/02/04 02:12:34;;;;;;;5.30;3.03;;;13.20;71.90;;;;;;4617717;30;20049;-87
2024/02/04 02:15:07;;;;;;;6.65;2.90;;;13.20;71.90;;;;;;4619806;30;20043;-86
2024/02/04 02:17:38;;;;;;;;;;;13.10;71.70;;;;;;4624787;30;20043;-84
2024/02/04 02:20:21;;;;;;;5.20;2.65;;;13.10;71.70;;;;;;4618152;30;19996;-85
2024/02/04 02:23:02;;;;;;;6.95;2.50;;;13.10;71.70;;;;;;4618450;30;20477;-83
2024/02/04 02:25:31;;;;;;;5.30;2.40;;;13.10;71.70;;;;;;4629502;30;20047;-84
2024/02/04 02:27:58;;;;;;;7.82;2.85;;;13.10;71.70;;;;;;4627312;30;20032;-85
2024/02/04 02:30:23;;;;;;;8.38;3.25;;;13.10;71.80;;;;;;4629547;30;20381;-84
2024/02/04 02:32:50;;;;;;;5.20;2.55;;;13.10;71.80;;;;;;4615759;30;20054;-87
2024/02/04 02:35:20;;;;;;;6.95;2.63;;;13.10;71.90;;;;;;4634021;30;20042;-87
2024/02/04 02:38:33;;;;;;;8.60;3.15;;;13.10;71.90;;;;;;4625598;30;20039;-86
2024/02/04 02:41:08;;;;;;;8.18;2.88;;;13.10;72.00;;;;;;4631213;30;20054;-86
2024/02/04 02:43:35;;;;;;;4.88;2.50;;;13.10;71.90;;;;;;4616144;30;20030;-84
2024/02/04 02:46:01;;;;;;;7.10;3.10;;;13.10;71.90;;;;;;4620752;30;20047;-85
2024/02/04 02:48:28;;;;;;;6.68;2.53;;;13.10;72.00;;;;;;4636561;30;20035;-86
2024/02/04 02:50:54;;;;;;;4.43;2.40;;;13.10;72.00;;;;;;4636505;30;20043;-84
2024/02/04 02:53:20;;;;;;;5.47;2.05;;;13.10;72.00;;;;;;4618945;30;20090;-85
2024/02/04 02:55:46;;;;;;;6.78;2.92;;;13.10;72.00;;;;;;4636882;30;20323;-85
2024/02/04 02:58:13;;;;;;;7.32;2.90;;;13.00;71.80;;;;;;4632313;30;20035;-85
2024/02/04 03:00:39;;;;;;;5.38;2.08;;;13.10;72.10;;;;;;4633361;30;20051;-85
2024/02/04 03:03:06;;;;;;;7.10;3.05;;;13.10;72.10;;;;;;4635099;30;20209;-84
2024/02/04 03:05:32;;;;;;;5.57;2.50;;;13.00;72.40;;;;;;4619567;30;20481;-83
2024/02/04 03:07:58;;;;;;;4.10;2.58;;;13.00;71.90;;;;;;4618137;30;20034;-85
2024/02/04 03:10:27;;;;;;;3.70;2.35;;;13.00;72.00;;;;;;4621584;30;20500;-82
2024/02/04 03:12:53;;;;;;;7.35;2.88;;;13.00;71.90;;;;;;4621069;30;20109;-83
2024/02/04 03:15:19;;;;;;;4.93;2.30;;;13.00;72.00;;;;;;4630357;30;20066;-85
2024/02/04 03:17:46;;;;;;;4.47;2.13;;;13.00;72.00;;;;;;4633996;30;20047;-84
2024/02/04 03:20:12;;;;;;;4.63;2.15;;;13.00;72.00;;;;;;4621863;30;20054;-83
2024/02/04 03:22:38;;;;;;;7.45;2.22;;;13.00;72.00;;;;;;4631695;30;20461;-84
2024/02/04 03:25:04;;;;;;;6.03;2.10;;;13.00;72.10;;;;;;4621901;30;20464;-85
2024/02/04 03:27:30;;;;;;;4.80;2.42;;;13.00;72.10;;;;;;4629623;30;20175;-85
2024/02/04 03:29:56;;;;;;;4.72;2.10;;;13.00;72.10;;;;;;4622150;30;20559;-85
2024/02/04 03:32:23;;;;;;;5.80;2.55;;;13.00;72.10;;;;;;4634900;30;20077;-84
2024/02/04 03:34:49;;;;;;;6.40;2.33;;;12.90;72.00;;;;;;4625397;30;20042;-84
2024/02/04 03:37:15;;;;;;;6.38;2.40;;;13.00;72.10;;;;;;4629251;30;20100;-86
2024/02/04 03:39:44;;;;;;;5.30;2.55;;;13.00;72.10;;;;;;4630556;30;20277;-86
2024/02/04 03:42:10;;;;;;;5.60;2.15;;;12.90;72.00;;;;;;4629600;30;20070;-85
2024/02/04 03:44:36;;;;;;;4.43;1.60;;;13.00;72.20;;;;;;4648456;30;20046;-86
2024/02/04 03:47:03;;;;;;;7.15;2.08;;;13.00;72.30;;;;;;4634541;30;20107;-88
2024/02/04 03:49:29;;;;;;;5.50;1.90;;;13.00;72.20;;;;;;4649688;30;20745;-89
2024/02/04 03:51:58;;;;;;;4.82;1.77;;;13.00;72.30;;;;;;4648501;30;20039;-90
2024/02/04 03:54:24;;;;;;;7.10;2.00;;;13.00;72.20;;;;;;4632959;30;20055;-85
2024/02/04 03:56:50;;;;;;;7.43;2.30;;;12.90;72.10;;;;;;4634091;30;20030;-87
2024/02/04 03:59:19;;;;;;;5.10;1.98;;;13.00;72.30;;;;;;4650729;30;20118;-84
2024/02/04 04:01:53;;;;;;;4.55;2.03;;;12.90;72.10;;;;;;4641389;30;20043;-85
2024/02/04 04:04:22;;;;;;;6.53;2.80;;;12.90;72.10;;;;;;4644017;30;20047;-88
2024/02/04 04:06:51;;;;;;;4.18;2.00;;;12.90;72.10;;;;;;4642817;30;20094;-85
2024/02/04 04:09:19;;;;;;;3.60;1.58;;;12.90;72.10;;;;;;4642668;30;20533;-86
2024/02/04 04:11:48;;;;;;;5.72;1.80;;;12.90;72.60;;;;;;4627044;30;20114;-85
2024/02/04 04:14:17;;;;;;;4.18;1.73;;;12.90;72.10;;;;;;4635312;30;20055;-84
2024/02/04 04:16:46;;;;;;;6.03;1.90;;;12.90;72.20;;;;;;4636319;30;20047;-85
2024/02/04 04:19:12;;;;;;;7.00;2.20;;;12.90;72.30;;;;;;4642802;30;20074;-85
2024/02/04 04:21:40;;;;;;;4.68;2.00;;;12.90;72.30;;;;;;4632584;30;20039;-85
2024/02/04 04:24:06;;;;;;;7.35;1.80;;;12.90;72.30;;;;;;4625659;30;20690;-85
2024/02/04 04:26:33;;;;;;;7.40;3.35;;;12.90;72.30;;;;;;4629292;30;20039;-85
2024/02/04 04:28:59;;;;;;;7.57;3.38;;;12.90;72.40;;;;;;4642386;30;20065;-84
2024/02/04 04:31:25;;;;;;;5.28;2.33;;;12.90;72.40;;;;;;4639030;30;20475;-85
2024/02/04 04:33:52;;;;;;;4.82;2.00;;;12.90;72.40;;;;;;4626904;30;20191;-86
2024/02/04 04:36:18;;;;;;;5.25;1.98;;;12.90;72.60;;;;;;4638357;30;20075;-84
2024/02/04 04:38:44;;;;;;;3.92;1.80;;;12.90;72.40;;;;;;4639771;30;20088;-88
2024/02/04 04:41:09;;;;;;;5.82;1.92;;;12.90;72.40;;;;;;4646101;30;20070;-88
2024/02/04 04:43:38;;;;;;;4.93;1.73;;;12.90;72.40;;;;;;4642627;30;20039;-87
2024/02/04 04:46:04;;;;;;;5.32;1.60;;;12.90;72.50;;;;;;4638266;30;20042;-86
2024/02/04 04:48:31;;;;;;;7.18;2.55;;;12.90;72.50;;;;;;4649519;30;20289;-90
2024/02/04 04:50:57;;;;;;;7.18;2.50;;;12.90;72.50;;;;;;4624156;30;20082;-88
2024/02/04 04:53:24;;;;;;;5.80;2.08;;;12.90;72.50;;;;;;4639763;30;20039;-83
2024/02/04 04:55:49;;;;;;;7.00;2.72;;;12.90;72.50;;;;;;4641371;30;20391;-87
2024/02/04 04:58:15;;;;;;;3.95;2.10;;;12.80;72.40;;;;;;4638600;30;20063;-84
2024/02/04 05:00:41;;;;;;;6.80;2.75;;;12.90;72.60;;;;;;4624270;30;20386;-83
2024/02/04 05:03:07;;;;;;;6.70;2.53;;;12.80;72.40;;;;;;4626311;30;20445;-83
2024/02/04 05:05:33;;;;;;;5.90;1.80;;;12.80;72.50;;;;;;4641659;30;20508;-83
2024/02/04 05:07:58;;;;;;;7.03;2.42;;;12.80;72.50;;;;;;4641913;30;20047;-84
2024/02/04 05:10:24;;;;;;;6.45;1.73;;;12.90;72.70;;;;;;4641733;30;20042;-84
2024/02/04 05:12:50;;;;;;;5.20;2.03;;;12.80;72.50;;;;;;4624564;30;20043;-84
2024/02/04 05:15:18;;;;;;;4.63;1.95;;;12.80;72.50;;;;;;4625580;30;20073;-83
2024/02/04 05:17:44;;;;;;;8.65;3.05;;;12.90;72.80;;;;;;4625997;30;20085;-84
2024/02/04 05:20:10;;;;;;;9.30;2.50;;;12.80;72.60;;;;;;4625843;30;20557;-84
2024/02/04 05:22:36;;;;;;;6.75;2.42;;;12.90;72.80;;;;;;4640526;30;20119;-88
2024/02/04 05:25:02;;;;;;;5.60;2.13;;;12.90;72.80;;;;;;4628796;30;20066;-90
2024/02/04 05:27:29;;;;;;;5.88;2.38;;;12.90;72.80;;;;;;4642933;30;20076;-88
2024/02/04 05:29:54;;;;;;;7.85;2.20;;;12.80;72.60;;;;;;4645663;30;20125;-83
2024/02/04 05:32:20;;;;;;;7.90;3.13;;;12.80;72.60;;;;;;4640455;30;20154;-83
2024/02/04 05:34:46;;;;;;;7.05;2.85;;;12.80;72.70;;;;;;4622310;30;20469;-83
2024/02/04 05:37:12;;;;;;;8.00;3.75;;;12.90;72.80;;;;;;4641274;30;20131;-81
2024/02/04 05:39:38;;;;;;;7.45;2.42;;;12.90;72.80;;;;;;4639331;30;20391;-86
2024/02/04 05:42:04;;;;;;;4.50;2.25;;;12.80;72.70;;;;;;4637601;30;20143;-83
2024/02/04 05:44:29;;;;;;;7.70;2.22;;;12.80;72.70;;;;;;4641438;30;20039;-83
2024/02/04 05:46:59;;;;;;;4.43;1.98;;;12.90;72.90;;;;;;4640716;30;20051;-84
2024/02/04 05:49:25;;;;;;;5.15;2.10;;;12.90;72.90;;;;;;4617795;30;20073;-87
2024/02/04 05:51:50;;;;;;;6.88;2.40;;;12.90;72.90;;;;;;4636357;30;20048;-85
2024/02/04 05:54:16;;;;;;;4.40;1.85;;;12.80;72.80;;;;;;4618795;30;20127;-84
2024/02/04 05:56:42;;;;;;;5.65;2.25;;;12.80;72.80;;;;;;4637008;30;20049;-85
2024/02/04 05:59:08;;;;;;;6.72;2.83;;;12.80;72.80;;;;;;4619925;30;20043;-85
2024/02/04 06:01:34;;;;;;;9.45;2.47;;;12.80;72.80;;;;;;4622723;30;20061;-85
2024/02/04 06:04:00;;;;;;;4.57;2.20;;;12.80;72.90;;;;;;4635967;30;20497;-87
2024/02/04 06:06:25;;;;;;;7.13;2.45;;;12.80;72.90;;;;;;4633977;30;20057;-81
2024/02/04 06:08:52;;;;;;;8.02;2.08;;;12.80;72.90;;;;;;4638682;30;20163;-81
2024/02/04 06:11:18;;;;;;;6.45;1.83;;;12.80;72.90;;;;;;4637939;30;20050;-80
2024/02/04 06:13:44;;;;;;;5.75;2.05;;;12.80;72.90;;;;;;4637581;30;20543;-80
2024/02/04 06:16:13;;;;;;;7.13;1.92;;;12.80;72.90;;;;;;4623033;30;20155;-79
2024/02/04 06:18:39;;;;;;;5.25;2.10;;;12.80;72.90;;;;;;4622577;30;20087;-79
2024/02/04 06:21:06;;;;;;;6.13;2.35;;;12.80;72.90;;;;;;4639489;30;20539;-79
2024/02/04 06:23:32;;;;;;;6.57;2.63;;;12.80;72.90;;;;;;4612962;30;20097;-78
2024/02/04 06:25:58;;;;;;;4.35;1.67;;;12.80;72.90;;;;;;4638896;30;20302;-79
2024/02/04 06:28:24;;;;;;;7.53;2.67;;;12.80;72.90;;;;;;4629745;30;20034;-79
2024/02/04 06:30:50;;;;;;;5.28;2.03;;;12.90;73.10;;;;;;4640309;30;20288;-78
2024/02/04 06:33:16;;;;;;;8.52;2.22;;;12.80;72.90;;;;;;4633530;30;20141;-79
2024/02/04 06:35:42;;;;;;;4.10;1.55;;;12.80;72.90;;;;;;4628599;30;20190;-81
2024/02/04 06:38:08;;;;;;;4.15;1.88;;;12.90;73.10;;;;;;4659638;30;20031;-81
2024/02/04 06:40:34;;;;;;;4.28;1.95;;;12.80;72.90;;;;;;4657821;30;20051;-81
2024/02/04 06:43:00;;;;;;;3.78;1.35;;;12.90;73.20;;;;;;4657642;30;20091;-82
2024/02/04 06:45:26;;;;;;;4.85;1.52;;;12.90;73.20;;;;;;4639015;30;20054;-81
2024/02/04 06:47:52;;;;;;;3.30;1.60;;;12.90;73.20;;;;;;4639503;30;20034;-81
2024/02/04 06:50:18;;;;;;;3.83;2.10;;;12.90;73.20;;;;;;4620650;30;20412;-82
2024/02/04 06:52:45;;;;;;;4.40;1.75;;;12.90;73.20;;;;;;4622889;30;20070;-82
2024/02/04 06:55:12;;;;;;;4.22;1.80;;;12.90;73.20;;;;;;4634241;30;20255;-83
2024/02/04 06:57:38;;;;;;;5.88;1.88;;;12.90;73.20;;;;;;4637734;30;20357;-82
2024/02/04 07:00:11;;;;;;;6.40;1.70;;;12.90;73.20;;;;;;4620911;30;20137;-81
2024/02/04 07:02:37;;;;;;;7.85;2.70;;;12.90;73.30;;;;;;4639104;30;20078;-81
2024/02/04 07:05:04;;;;;;;6.45;1.80;;;12.90;73.30;;;;;;4635478;30;20111;-80
2024/02/04 07:07:30;;;;;;;5.50;2.30;;;12.90;73.30;;;;;;4646688;30;20078;-85
2024/02/04 07:09:58;;;;;;;12.63;2.05;;;12.90;73.50;;;;;;4633321;30;20035;-83
2024/02/04 07:12:24;;;;;;;6.18;2.15;;;13.00;74.00;;;;;;4644170;30;20125;-83
2024/02/04 07:14:49;;;;;;;5.82;1.80;;;13.00;74.20;;;;;;4629072;30;20077;-79
2024/02/04 07:17:15;;;;;;;6.82;2.10;;;13.10;74.40;;;;;;4628926;30;20134;-80
2024/02/04 07:19:41;;;;;;;6.05;2.20;;;13.30;74.70;;;;;;4649046;30;21130;-82
2024/02/04 07:22:08;;;;;;;9.00;3.08;;;13.30;74.60;;;;;;4642467;30;20030;-80
2024/02/04 07:24:35;;;;;;;7.07;3.13;;;13.40;74.80;;;;;;4628714;30;20182;-79
2024/02/04 07:27:01;;;;;;;7.85;1.95;;;13.40;74.80;;;;;;4628826;30;20106;-79
2024/02/04 07:29:27;;;;;;;10.00;3.20;;;13.50;75.00;;;;;;4638197;30;20115;-82
2024/02/04 07:31:53;;;;;;;6.32;2.50;;;13.50;75.10;;;;;;4627279;30;20362;-81
2024/02/04 07:34:22;;;;;;;9.18;2.40;;;13.50;75.10;;;;;;4634626;30;20031;-81
2024/02/04 07:36:52;;;;;;;52.08;13.25;;;13.60;75.40;;;;;;4636480;30;20043;-79
2024/02/04 07:39:18;;;;;;;45.10;11.25;;;13.60;75.40;;;;;;4639872;30;20212;-79
2024/02/04 07:41:44;;;;;;;48.33;10.57;;;13.60;75.50;;;;;;4643890;30;20110;-80
2024/02/04 07:44:10;;;;;;;32.47;7.80;;;13.60;75.60;;;;;;4635844;30;20050;-80
2024/02/04 07:46:36;;;;;;;29.77;7.68;;;13.60;75.70;;;;;;4651887;30;20035;-79
2024/02/04 07:49:02;;;;;;;30.10;9.60;;;13.60;75.80;;;;;;4626763;30;20465;-82
2024/02/04 07:51:27;;;;;;;23.67;6.80;;;13.60;75.90;;;;;;4646139;30;20046;-82
2024/02/04 07:53:53;;;;;;;24.00;5.47;;;13.70;76.20;;;;;;4631917;30;20073;-85
2024/02/04 07:56:19;;;;;;;27.17;5.60;;;13.70;76.70;;;;;;4650299;30;20039;-86
2024/02/04 07:58:45;;;;;;;19.35;4.13;;;13.80;76.30;;;;;;4653401;30;20065;-90
2024/02/04 08:01:11;;;;;;;15.05;5.20;;;13.90;76.30;;;;;;4635133;30;20074;-89
2024/02/04 08:03:37;;;;;;;19.00;5.60;;;14.00;76.30;;;;;;4642059;30;20043;-89
2024/02/04 08:06:04;;;;;;;15.35;4.85;;;14.00;76.00;;;;;;4638120;30;20043;-90
2024/02/04 08:08:30;;;;;;;14.38;4.57;;;14.10;76.00;;;;;;4639490;30;20480;-85
2024/02/04 08:10:56;;;;;;;13.43;5.68;;;14.10;75.80;;;;;;4629620;30;20073;-84
2024/02/04 08:13:22;;;;;;;17.13;7.25;;;14.10;75.80;;;;;;4623823;30;20133;-84
2024/02/04 08:15:48;;;;;;;18.75;5.18;;;14.00;75.60;;;;;;4622555;30;20050;-83
2024/02/04 08:18:14;;;;;;;17.15;4.55;;;14.00;75.60;;;;;;4637910;30;20186;-83
2024/02/04 08:20:41;;;;;;;15.32;3.80;;;14.00;75.60;;;;;;4621629;30;20042;-83
2024/02/04 08:23:07;;;;;;;19.42;4.13;;;14.00;75.60;;;;;;4637312;30;20055;-84
2024/02/04 08:25:33;;;;;;;16.73;3.97;;;14.00;75.70;;;;;;4621865;30;20050;-84
2024/02/04 08:27:59;;;;;;;13.13;3.83;;;14.00;75.70;;;;;;4623048;30;20038;-82
2024/02/04 08:30:26;;;;;;;11.93;4.93;;;13.90;75.50;;;;;;4638612;30;20078;-84
2024/02/04 08:32:52;;;;;;;14.82;4.63;;;14.00;75.70;;;;;;4636602;30;20038;-84
2024/02/04 08:35:18;;;;;;;11.27;5.30;;;13.90;75.50;;;;;;4617989;30;20572;-82
2024/02/04 08:37:47;;;;;;;19.90;5.25;;;14.00;75.70;;;;;;4637349;30;20073;-84
2024/02/04 08:40:13;;;;;;;11.57;4.68;;;13.90;75.50;;;;;;4634508;30;20414;-84
2024/02/04 08:42:40;;;;;;;13.80;3.90;;;13.90;75.50;;;;;;4636149;30;20377;-85
2024/02/04 08:45:07;;;;;;;15.68;5.13;;;13.90;75.50;;;;;;4636258;30;20437;-82
2024/02/04 08:47:33;;;;;;;11.23;4.05;;;13.90;75.50;;;;;;4636019;30;20043;-84
2024/02/04 08:49:59;;;;;;;10.98;3.40;;;13.90;75.50;;;;;;4634909;30;20477;-83
2024/02/04 08:52:25;;;;;;;8.77;2.67;;;14.00;75.70;;;;;;4618529;30;20049;-82
2024/02/04 08:54:51;;;;;;;11.07;3.58;;;14.00;75.60;;;;;;4635025;30;20043;-82
2024/02/04 08:57:17;;;;;;;9.95;3.08;;;14.00;75.70;;;;;;4621595;30;20044;-83
2024/02/04 08:59:46;;;;;;;7.72;2.78;;;14.00;75.60;;;;;;4637712;30;20051;-88
2024/02/04 09:02:12;;;;;;;9.50;3.65;;;14.00;75.60;;;;;;4640259;30;20588;-80
2024/02/04 09:04:40;;;;;;;10.50;2.97;;;14.00;75.60;;;;;;4622480;30;20225;-82
2024/02/04 09:07:18;;;;;;;7.95;2.30;;;14.00;75.60;;;;;;4625014;30;20062;-82
2024/02/04 09:09:47;;;;;;;10.85;3.60;;;14.10;75.70;;;;;;4622153;30;20115;-81
2024/02/04 09:12:15;;;;;;;8.30;2.45;;;14.10;75.70;;;;;;4624266;30;20117;-83
2024/02/04 09:14:41;;;;;;;7.90;3.03;;;14.10;75.70;;;;;;4621928;30;20504;-82
2024/02/04 09:17:13;;;;;;;11.65;3.25;;;14.10;75.70;;;;;;4623259;30;20072;-82
2024/02/04 09:19:40;;;;;;;10.20;3.17;;;14.10;75.70;;;;;;4621980;30;20395;-80
2024/02/04 09:22:05;;;;;;;15.27;3.72;;;14.10;75.70;;;;;;4636168;30;20035;-80
2024/02/04 09:24:32;;;;;;;10.70;3.00;;;14.10;75.60;;;;;;4625746;30;20118;-81
2024/02/04 09:27:01;;;;;;;15.52;3.47;;;14.10;75.60;;;;;;4633452;30;20061;-83
2024/02/04 09:29:27;;;;;;;9.00;3.20;;;14.20;75.80;;;;;;4653943;30;20179;-81
2024/02/04 09:31:53;;;;;;;9.70;3.03;;;14.20;75.80;;;;;;4649701;30;20054;-82
2024/02/04 09:34:20;;;;;;;8.15;3.22;;;14.20;75.80;;;;;;4643531;30;20042;-82
2024/02/04 09:36:46;;;;;;;7.55;3.25;;;14.20;75.80;;;;;;4648339;30;20035;-83
2024/02/04 09:39:12;;;;;;;13.38;3.90;;;14.30;75.90;;;;;;4649563;30;20646;-82
2024/02/04 09:41:38;;;;;;;17.83;5.43;;;14.30;75.90;;;;;;4638686;30;20042;-81
2024/02/04 09:44:07;;;;;;;37.90;21.98;;;14.30;76.00;;;;;;4631908;30;20039;-82
2024/02/04 09:46:33;;;;;;;58.63;37.67;;;14.30;76.10;;;;;;4621100;30;20081;-83
2024/02/04 09:49:00;;;;;;;83.07;59.05;;;14.40;76.40;;;;;;4643418;30;20055;-80
2024/02/04 09:51:27;;;;;;;84.80;67.57;;;14.40;76.60;;;;;;4648302;30;20039;-82
2024/02/04 09:54:03;;;;;;;70.40;57.28;;;14.50;77.00;;;;;;4613512;30;20562;-82
2024/02/04 09:56:34;;;;;;;68.88;55.17;;;14.50;77.20;;;;;;4620607;30;20134;-80
2024/02/04 09:59:00;;;;;;;59.72;47.20;;;14.60;77.30;;;;;;4636880;30;20063;-82
2024/02/04 10:01:27;;;;;;;57.28;42.58;;;14.60;77.30;;;;;;4621295;30;20041;-82
2024/02/04 10:03:53;;;;;;;51.30;40.17;;;14.60;77.20;;;;;;4640935;30;20046;-83
2024/02/04 10:06:19;;;;;;;53.88;39.25;;;14.60;77.10;;;;;;4637397;30;20150;-82
2024/02/04 10:08:46;;;;;;;50.20;36.70;;;14.70;77.30;;;;;;4623697;30;20138;-83
2024/02/04 10:11:12;;;;;;;47.15;34.33;;;14.60;77.00;;;;;;4622729;30;20442;-82
2024/02/04 10:13:49;;;;;;;43.38;31.27;;;14.60;76.90;;;;;;4621556;30;20043;-86
2024/02/04 10:16:16;;;;;;;40.47;31.85;;;14.70;77.00;;;;;;4637811;30;20038;-80
2024/02/04 10:18:48;;;;;;;38.67;28.02;;;14.70;76.90;;;;;;4623755;30;20126;-77
2024/02/04 10:21:19;;;;;;;36.05;26.08;;;14.70;76.80;;;;;;4636755;30;20051;-81
2024/02/04 10:23:48;;;;;;;33.15;25.77;;;14.70;76.60;;;;;;4635642;30;20325;-79
2024/02/04 10:26:20;;;;;;;27.52;23.45;;;14.70;76.50;;;;;;4635326;30;20050;-79
2024/02/04 10:28:47;;;;;;;28.20;23.15;;;14.70;76.40;;;;;;4618948;30;20047;-79
2024/02/04 10:31:14;;;;;;;27.63;21.38;;;14.70;76.30;;;;;;4620105;30;20058;-83
2024/02/04 10:33:40;;;;;;;28.45;20.48;;;14.70;76.20;;;;;;4617561;30;20039;-83
2024/02/04 10:36:07;;;;;;;27.00;19.10;;;14.80;76.20;;;;;;4635387;30;20367;-81
2024/02/04 10:38:33;;;;;;;28.30;16.80;;;14.80;76.10;;;;;;4635256;30;20204;-81
2024/02/04 10:41:02;;;;;;;24.33;16.75;;;14.80;76.00;;;;;;4621626;30;20038;-81
2024/02/04 10:43:34;;;;;;;23.77;15.63;;;14.80;75.80;;;;;;4618236;30;20042;-81
2024/02/04 10:46:18;;;;;;;22.23;15.63;;;14.80;75.70;;;;;;4617725;30;20066;-81
2024/02/04 10:48:54;;;;;;;15.52;13.10;;;14.80;75.60;;;;;;4633616;30;20043;-81
2024/02/04 10:51:26;;;;;;;23.85;13.38;;;14.90;75.70;;;;;;4633193;30;20513;-81
2024/02/04 10:53:56;;;;;;;21.85;13.00;;;14.90;75.60;;;;;;4634101;30;20551;-82
2024/02/04 10:56:40;;;;;;;22.27;12.00;;;14.90;75.50;;;;;;4618149;30;20043;-80
2024/02/04 10:59:09;;;;;;;17.58;10.13;;;14.90;75.30;;;;;;4632130;30;20099;-81
2024/02/04 11:01:36;;;;;;;15.02;10.68;;;15.00;75.30;;;;;;4622130;30;20329;-81
2024/02/04 11:04:05;;;;;;;14.75;9.80;;;15.00;75.20;;;;;;4635502;30;20330;-80
2024/02/04 11:06:36;;;;;;;14.23;9.30;;;15.00;75.00;;;;;;4637329;30;20545;-81
2024/02/04 11:09:11;;;;;;;12.90;8.50;;;15.10;75.10;;;;;;4636731;30;20287;-81
2024/02/04 11:11:40;;;;;;;16.88;8.45;;;15.10;75.00;;;;;;4637803;30;20083;-80
2024/02/04 11:14:12;;;;;;;14.40;8.32;;;15.10;74.80;;;;;;4632946;30;20053;-80
2024/02/04 11:16:52;;;;;;;13.07;8.20;;;15.20;74.90;;;;;;4621602;30;20342;-80
2024/02/04 11:19:59;;;;;;;13.18;7.53;;;15.20;74.70;;;;;;4638953;30;20141;-80
2024/02/04 11:22:34;;;;;;;13.35;6.75;;;15.30;74.70;;;;;;4619103;30;20441;-80
2024/02/04 11:25:26;;;;;;;11.05;6.07;;;15.30;74.50;;;;;;4622322;30;20043;-81
2024/02/04 11:27:52;;;;;;;15.57;6.68;;;15.40;74.40;;;;;;4637066;30;20047;-81
2024/02/04 11:30:19;;;;;;;11.98;7.18;;;15.40;74.20;;;;;;4637272;30;20039;-80
2024/02/04 11:32:51;;;;;;;10.70;4.20;;;15.50;74.20;;;;;;4622080;30;20054;-80
2024/02/04 11:35:22;;;;;;;11.07;4.40;;;15.50;74.20;;;;;;4632909;30;20050;-81
2024/02/04 11:37:53;;;;;;;10.60;5.20;;;15.50;74.10;;;;;;4622953;30;20131;-82
2024/02/04 11:40:33;;;;;;;9.75;4.43;;;15.50;74.10;;;;;;4618450;30;20591;-83
2024/02/04 11:43:27;;;;;;;9.13;4.43;;;15.50;74.00;;;;;;4638892;30;20039;-83
2024/02/04 11:45:57;;;;;;;7.25;4.10;;;15.50;73.90;;;;;;4638230;30;20054;-80
2024/02/04 11:48:30;;;;;;;9.38;4.55;;;15.50;73.90;;;;;;4654497;30;20050;-81
2024/02/04 11:51:00;;;;;;;8.85;4.20;;;15.40;73.70;;;;;;4647908;30;20035;-79
2024/02/04 11:53:32;;;;;;;10.27;6.15;;;15.40;73.80;;;;;;4648907;30;20199;-80
2024/02/04 11:56:06;;;;;;;8.80;7.00;;;15.40;74.30;;;;;;4644373;30;20046;-80
2024/02/04 11:58:40;;;;;;;12.50;7.43;;;15.40;73.90;;;;;;4653227;30;20106;-82
2024/02/04 12:01:13;;;;;;;12.98;7.35;;;15.50;74.00;;;;;;4646524;30;20047;-80
2024/02/04 12:03:46;;;;;;;15.07;6.78;;;15.60;74.00;;;;;;4641285;30;20055;-80
2024/02/04 12:06:16;;;;;;;10.68;7.22;;;15.70;73.80;;;;;;4639355;30;20038;-85
2024/02/04 12:08:44;;;;;;;8.60;6.30;;;15.80;73.50;;;;;;4655513;30;20154;-90
2024/02/04 12:11:11;;;;;;;12.57;6.72;;;15.90;73.40;;;;;;4647944;30;20039;-82
2024/02/04 12:13:39;;;;;;;10.77;5.82;;;16.00;73.20;;;;;;4652053;30;20126;-83
2024/02/04 12:16:08;;;;;;;13.25;5.82;;;16.20;73.10;;;;;;4647635;30;20035;-84
2024/02/04 12:18:48;;;;;;;10.68;5.88;;;16.30;72.90;;;;;;4652367;30;20043;-82
2024/02/04 12:21:14;;;;;;;8.38;5.05;;;16.40;72.60;;;;;;4639181;30;20043;-82
2024/02/04 12:23:44;;;;;;;10.88;5.30;;;16.50;72.60;;;;;;4640831;30;20035;-81
2024/02/04 12:26:14;;;;;;;9.52;4.60;;;16.50;72.40;;;;;;4643972;30;20046;-82
2024/02/04 12:28:40;;;;;;;11.02;4.30;;;16.60;72.40;;;;;;4654096;30;20424;-83
2024/02/04 12:31:07;;;;;;;11.95;5.13;;;16.60;72.20;;;;;;4637565;30;20043;-81
2024/02/04 12:33:33;;;;;;;10.85;4.97;;;16.70;72.20;;;;;;4637425;30;20043;-81
2024/02/04 12:36:01;;;;;;;8.77;4.53;;;16.70;72.00;;;;;;4622900;30;20070;-81
2024/02/04 12:38:29;;;;;;;9.93;4.70;;;16.80;71.90;;;;;;4634153;30;20045;-81
2024/02/04 12:41:03;;;;;;;10.27;4.85;;;16.90;71.90;;;;;;4627546;30;20145;-77
2024/02/04 12:43:29;;;;;;;11.95;6.78;;;16.90;71.60;;;;;;4635412;30;20027;-84
2024/02/04 12:45:59;;;;;;;13.50;7.28;;;17.00;71.70;;;;;;4632247;30;20488;-84
2024/02/04 12:48:28;;;;;;;11.35;6.70;;;17.10;71.80;;;;;;4631852;30;20074;-85